WetterOnline ( http://www.wetteronline.de )

Wetter aktuell Altusried

Aktuelles Wetter: Kempten (705m)

6-stündlich | Neueste Meldungen
Ortszeit Temperatur Wetter
Di, 23.05. 20:00 17.9° C wolkig
Di, 23.05. 14:00 21.0° C wolkig
Di, 23.05. 8:00 16.1° C wolkig
Di, 23.05. 2:00 9.9° C leicht bewölkt
Ortszeit Temperatur Wetter
Mi, 24.05. 0:30 14.2° C bewölkt
Mi, 24.05. 0:00 14.7° C wolkig
Di, 23.05. 23:30 15.3° C bewölkt
Di, 23.05. 23:00 15.6° C bewölkt
Di, 23.05. 22:30 15.9° C wolkig
Di, 23.05. 22:00 17.6° C bewölkt
Ortszeit Relative Feuchte Sichtweite
Di, 23.05. 20:00 71% 40 km
Di, 23.05. 14:00 44% 35 km
Di, 23.05. 8:00 65% 20 km
Di, 23.05. 2:00 89% 30 km
Ortszeit Relative Feuchte Sichtweite
Mi, 24.05. 0:30 83% 45 km
Mi, 24.05. 0:00 83% 40 km
Di, 23.05. 23:30 80% 40 km
Di, 23.05. 23:00 78% 45 km
Di, 23.05. 22:30 79% 50 km
Di, 23.05. 22:00 67% 50 km
Ortszeit Niederschlagsmenge Niederschlagsart
Di, 23.05. 20:00 0.3 l/m2 in 12 Std. Regenschauer
Di, 23.05. 14:00 0,0 l/m2 in 6 Std. -
Di, 23.05. 8:00 0,0 l/m2 in 12 Std. -
Di, 23.05. 2:00 0,0 l/m2 in 6 Std. -
Ortszeit Niederschlagsmenge Niederschlagsart
Mi, 24.05. 0:30 keine Meldung -
Mi, 24.05. 0:00 0,0 l/m2 in 1 Std. -
Di, 23.05. 23:30 keine Meldung -
Di, 23.05. 23:00 0,0 l/m2 in 1 Std. -
Di, 23.05. 22:30 keine Meldung -
Di, 23.05. 22:00 0,0 l/m2 in 1 Std. -
Ortszeit Stärke Spitze Richtung
km/h Bft. km/h Grad Sektor
Di, 23.05. 20:00 7 2 40 220° SW
Di, 23.05. 14:00 19 3 37 270° W
Di, 23.05. 8:00 9 2 17 180° S
Di, 23.05. 2:00 7 2 14 100° O
Ortszeit Stärke Spitze Richtung
km/h Bft. km/h Grad Sektor
Mi, 24.05. 0:30 4 1 7 130° SO
Mi, 24.05. 0:00 6 1 9 160° S
Di, 23.05. 23:30 7 2 11 100° O
Di, 23.05. 23:00 7 2 11 110° O
Di, 23.05. 22:30 6 1 9 210° SW
Di, 23.05. 22:00 7 2 14 250° W
Ortszeit Untergrenze Bedeckung Gattung
total tief tief mittel hoch
Di, 23.05. 20:00 1800 m 6/8 6/8 - - -
Di, 23.05. 14:00 1500 m 7/8 4/8 - - -
Di, 23.05. 8:00 4800 m 5/8 5/8 - - -
Di, 23.05. 2:00 2100 m 5/8 2/8 - - -
Ortszeit Bedeckungsgrad in Achtel und Wolkenuntergrenze
Mi, 24.05. 0:30 2(1800m) 6(2100m) 7(8100m)
Mi, 24.05. 0:00 5(1800m) 7(4200m) 7(5100m)
Di, 23.05. 23:30 7(2100m) 7(2400m)
Di, 23.05. 23:00 5(2100m) 8(5100m)
Di, 23.05. 22:30 1(2100m) 8(5700m)
Di, 23.05. 22:00 4(1800m) 4(2100m) 7(2700m)
Ortszeit Luftdruck NN (hPa) Tendenz (hPa in 3 Std.)
Di, 23.05. 20:00 1018 + 0,4
Di, 23.05. 14:00 1017 - 0,1
Di, 23.05. 8:00 1018 + 0,9
Di, 23.05. 2:00 1019 + 0,1
Ortszeit Luftdruck NN (hPa) Tendenz (hPa in 3 Std.)
Mi, 24.05. 0:30 1021 + 1,0
Mi, 24.05. 0:00 1021 + 1,3
Di, 23.05. 23:30 1021 + 1,6
Di, 23.05. 23:00 1021 + 1,4
Di, 23.05. 22:30 1020 + 1,2
Di, 23.05. 22:00 1019 + 1,3
Ortszeit Schneehöhe (cm)
Di, 23.05. 20:00 -
Di, 23.05. 14:00 -
Di, 23.05. 8:00 -
Di, 23.05. 2:00 -
Ortszeit Schneehöhe (cm)
Mi, 24.05. 0:30 -
Mi, 24.05. 0:00 -
Di, 23.05. 23:30 -
Di, 23.05. 23:00 -
Di, 23.05. 22:30 -
Di, 23.05. 22:00 -
Link zu dieser Seite / Seite empfehlen

Das Wetter in ...